sensor_id;sensor_type;location;lat;lon;timestamp;P1;durP1;ratioP1;P2;durP2;ratioP2
3355;SDS011;1691;52.486;13.374;2023-05-21T00:15:47;20.93;;;16.30;;
3355;SDS011;1691;52.486;13.374;2023-05-21T00:18:14;15.93;;;14.50;;
3355;SDS011;1691;52.486;13.374;2023-05-21T00:20:41;23.40;;;17.10;;
3355;SDS011;1691;52.486;13.374;2023-05-21T00:23:08;17.47;;;15.73;;
3355;SDS011;1691;52.486;13.374;2023-05-21T00:25:35;19.70;;;16.87;;
3355;SDS011;1691;52.486;13.374;2023-05-21T00:28:02;18.23;;;16.20;;
3355;SDS011;1691;52.486;13.374;2023-05-21T00:30:30;19.40;;;16.10;;
3355;SDS011;1691;52.486;13.374;2023-05-21T00:32:57;20.73;;;16.23;;
3355;SDS011;1691;52.486;13.374;2023-05-21T00:35:28;20.13;;;16.73;;
3355;SDS011;1691;52.486;13.374;2023-05-21T00:37:55;19.40;;;16.07;;
3355;SDS011;1691;52.486;13.374;2023-05-21T00:40:22;17.60;;;15.67;;
3355;SDS011;1691;52.486;13.374;2023-05-21T00:42:49;19.07;;;17.07;;
3355;SDS011;1691;52.486;13.374;2023-05-21T00:45:16;71.37;;;16.30;;
3355;SDS011;1691;52.486;13.374;2023-05-21T00:47:44;18.60;;;15.27;;
3355;SDS011;1691;52.486;13.374;2023-05-21T00:50:13;21.13;;;16.17;;
3355;SDS011;1691;52.486;13.374;2023-05-21T00:52:41;20.30;;;15.23;;
3355;SDS011;1691;52.486;13.374;2023-05-21T00:55:10;16.90;;;15.30;;
3355;SDS011;1691;52.486;13.374;2023-05-21T00:57:38;32.13;;;15.20;;
3355;SDS011;1691;52.486;13.374;2023-05-21T01:00:06;17.23;;;15.47;;
3355;SDS011;1691;52.486;13.374;2023-05-21T01:02:36;19.53;;;17.03;;
3355;SDS011;1691;52.486;13.374;2023-05-21T01:05:04;21.23;;;15.90;;
3355;SDS011;1691;52.486;13.374;2023-05-21T01:07:32;19.90;;;16.07;;
3355;SDS011;1691;52.486;13.374;2023-05-21T01:10:01;18.87;;;16.73;;
3355;SDS011;1691;52.486;13.374;2023-05-21T01:12:31;20.37;;;15.30;;
3355;SDS011;1691;52.486;13.374;2023-05-21T01:15:03;28.10;;;17.20;;
3355;SDS011;1691;52.486;13.374;2023-05-21T01:17:31;27.90;;;15.90;;
3355;SDS011;1691;52.486;13.374;2023-05-21T01:19:59;26.67;;;17.43;;
3355;SDS011;1691;52.486;13.374;2023-05-21T01:22:27;32.60;;;17.73;;
3355;SDS011;1691;52.486;13.374;2023-05-21T01:24:57;32.17;;;18.20;;
3355;SDS011;1691;52.486;13.374;2023-05-21T01:27:28;20.30;;;16.60;;
3355;SDS011;1691;52.486;13.374;2023-05-21T01:29:55;19.13;;;17.13;;
3355;SDS011;1691;52.486;13.374;2023-05-21T01:32:28;21.47;;;16.57;;
3355;SDS011;1691;52.486;13.374;2023-05-21T01:37:39;23.30;;;16.10;;
3355;SDS011;1691;52.486;13.374;2023-05-21T01:40:40;22.10;;;16.67;;
3355;SDS011;1691;52.486;13.374;2023-05-21T01:43:13;26.53;;;17.50;;
3355;SDS011;1691;52.486;13.374;2023-05-21T01:45:41;21.20;;;16.37;;
3355;SDS011;1691;52.486;13.374;2023-05-21T01:48:10;24.97;;;17.30;;
3355;SDS011;1691;52.486;13.374;2023-05-21T01:50:38;20.53;;;17.57;;
3355;SDS011;1691;52.486;13.374;2023-05-21T01:53:08;22.63;;;15.50;;
3355;SDS011;1691;52.486;13.374;2023-05-21T01:55:35;19.37;;;17.33;;
3355;SDS011;1691;52.486;13.374;2023-05-21T01:58:04;21.00;;;16.37;;
3355;SDS011;1691;52.486;13.374;2023-05-21T02:00:31;20.97;;;17.70;;
3355;SDS011;1691;52.486;13.374;2023-05-21T02:02:59;18.90;;;17.10;;
3355;SDS011;1691;52.486;13.374;2023-05-21T02:05:26;24.93;;;19.00;;
3355;SDS011;1691;52.486;13.374;2023-05-21T02:07:53;17.30;;;15.60;;
3355;SDS011;1691;52.486;13.374;2023-05-21T02:10:20;21.20;;;18.27;;
3355;SDS011;1691;52.486;13.374;2023-05-21T02:12:48;22.70;;;17.50;;
3355;SDS011;1691;52.486;13.374;2023-05-21T02:15:15;20.07;;;17.60;;
3355;SDS011;1691;52.486;13.374;2023-05-21T02:17:45;19.27;;;17.27;;
3355;SDS011;1691;52.486;13.374;2023-05-21T02:20:12;21.23;;;18.17;;
3355;SDS011;1691;52.486;13.374;2023-05-21T02:22:40;22.50;;;18.93;;
3355;SDS011;1691;52.486;13.374;2023-05-21T02:25:13;21.13;;;18.53;;
3355;SDS011;1691;52.486;13.374;2023-05-21T02:27:41;22.87;;;18.43;;
3355;SDS011;1691;52.486;13.374;2023-05-21T02:30:10;26.67;;;20.30;;
3355;SDS011;1691;52.486;13.374;2023-05-21T02:32:39;21.50;;;19.30;;
3355;SDS011;1691;52.486;13.374;2023-05-21T02:35:08;21.60;;;19.13;;
3355;SDS011;1691;52.486;13.374;2023-05-21T02:37:38;23.17;;;19.20;;
3355;SDS011;1691;52.486;13.374;2023-05-21T02:40:06;23.83;;;19.07;;
3355;SDS011;1691;52.486;13.374;2023-05-21T02:42:35;23.50;;;19.80;;
3355;SDS011;1691;52.486;13.374;2023-05-21T02:45:06;21.30;;;18.93;;
3355;SDS011;1691;52.486;13.374;2023-05-21T02:47:34;28.53;;;20.67;;
3355;SDS011;1691;52.486;13.374;2023-05-21T02:50:02;26.40;;;20.10;;
3355;SDS011;1691;52.486;13.374;2023-05-21T02:52:33;24.30;;;20.53;;
3355;SDS011;1691;52.486;13.374;2023-05-21T02:55:00;27.40;;;20.90;;
3355;SDS011;1691;52.486;13.374;2023-05-21T02:57:27;22.33;;;19.93;;
3355;SDS011;1691;52.486;13.374;2023-05-21T02:59:54;24.97;;;20.73;;
3355;SDS011;1691;52.486;13.374;2023-05-21T03:02:21;24.93;;;20.53;;
3355;SDS011;1691;52.486;13.374;2023-05-21T03:04:49;28.80;;;21.87;;
3355;SDS011;1691;52.486;13.374;2023-05-21T03:07:16;23.00;;;20.40;;
3355;SDS011;1691;52.486;13.374;2023-05-21T03:09:45;28.17;;;21.17;;
3355;SDS011;1691;52.486;13.374;2023-05-21T03:12:12;24.37;;;21.20;;
3355;SDS011;1691;52.486;13.374;2023-05-21T03:14:39;29.63;;;21.23;;
3355;SDS011;1691;52.486;13.374;2023-05-21T03:17:09;23.80;;;21.17;;
3355;SDS011;1691;52.486;13.374;2023-05-21T03:19:39;27.10;;;23.43;;
3355;SDS011;1691;52.486;13.374;2023-05-21T03:22:07;27.07;;;22.00;;
3355;SDS011;1691;52.486;13.374;2023-05-21T03:24:35;33.90;;;22.47;;
3355;SDS011;1691;52.486;13.374;2023-05-21T03:27:06;33.10;;;23.70;;
3355;SDS011;1691;52.486;13.374;2023-05-21T03:29:33;28.33;;;22.13;;
3355;SDS011;1691;52.486;13.374;2023-05-21T03:32:01;30.57;;;21.97;;
3355;SDS011;1691;52.486;13.374;2023-05-21T03:34:29;23.37;;;21.00;;
3355;SDS011;1691;52.486;13.374;2023-05-21T03:36:56;37.13;;;23.50;;
3355;SDS011;1691;52.486;13.374;2023-05-21T03:39:23;28.23;;;22.47;;
3355;SDS011;1691;52.486;13.374;2023-05-21T03:41:51;27.77;;;21.80;;
3355;SDS011;1691;52.486;13.374;2023-05-21T03:44:18;29.50;;;22.10;;
3355;SDS011;1691;52.486;13.374;2023-05-21T03:46:44;26.30;;;20.80;;
3355;SDS011;1691;52.486;13.374;2023-05-21T03:49:12;26.50;;;22.40;;
3355;SDS011;1691;52.486;13.374;2023-05-21T03:51:39;24.43;;;21.73;;
3355;SDS011;1691;52.486;13.374;2023-05-21T03:54:06;26.00;;;21.03;;
3355;SDS011;1691;52.486;13.374;2023-05-21T03:56:33;29.33;;;22.23;;
3355;SDS011;1691;52.486;13.374;2023-05-21T03:59:00;27.37;;;21.13;;
3355;SDS011;1691;52.486;13.374;2023-05-21T04:01:27;37.37;;;23.57;;
3355;SDS011;1691;52.486;13.374;2023-05-21T04:03:54;27.03;;;20.97;;
3355;SDS011;1691;52.486;13.374;2023-05-21T04:06:22;23.53;;;20.80;;
3355;SDS011;1691;52.486;13.374;2023-05-21T04:08:49;25.20;;;22.57;;
3355;SDS011;1691;52.486;13.374;2023-05-21T04:11:17;24.87;;;20.57;;
3355;SDS011;1691;52.486;13.374;2023-05-21T04:13:44;24.40;;;21.77;;
3355;SDS011;1691;52.486;13.374;2023-05-21T04:16:11;23.00;;;19.87;;
3355;SDS011;1691;52.486;13.374;2023-05-21T04:18:40;23.60;;;21.10;;
3355;SDS011;1691;52.486;13.374;2023-05-21T04:21:10;28.60;;;19.87;;
3355;SDS011;1691;52.486;13.374;2023-05-21T04:23:38;22.30;;;19.33;;
3355;SDS011;1691;52.486;13.374;2023-05-21T04:26:05;23.60;;;18.70;;
3355;SDS011;1691;52.486;13.374;2023-05-21T04:28:32;21.57;;;19.23;;
3355;SDS011;1691;52.486;13.374;2023-05-21T04:31:00;24.83;;;20.20;;
3355;SDS011;1691;52.486;13.374;2023-05-21T04:33:28;23.30;;;18.43;;
3355;SDS011;1691;52.486;13.374;2023-05-21T04:35:55;22.40;;;18.73;;
3355;SDS011;1691;52.486;13.374;2023-05-21T04:38:23;19.83;;;17.50;;
3355;SDS011;1691;52.486;13.374;2023-05-21T04:40:51;23.10;;;19.10;;
3355;SDS011;1691;52.486;13.374;2023-05-21T04:43:18;26.03;;;17.93;;
3355;SDS011;1691;52.486;13.374;2023-05-21T04:45:52;20.70;;;17.60;;
3355;SDS011;1691;52.486;13.374;2023-05-21T04:48:22;27.07;;;18.10;;
3355;SDS011;1691;52.486;13.374;2023-05-21T04:50:50;18.50;;;16.67;;
3355;SDS011;1691;52.486;13.374;2023-05-21T04:53:18;24.80;;;18.30;;
3355;SDS011;1691;52.486;13.374;2023-05-21T04:55:46;26.23;;;17.23;;
3355;SDS011;1691;52.486;13.374;2023-05-21T04:58:13;18.50;;;16.83;;
3355;SDS011;1691;52.486;13.374;2023-05-21T05:00:43;27.00;;;16.77;;
3355;SDS011;1691;52.486;13.374;2023-05-21T05:03:15;21.30;;;16.67;;
3355;SDS011;1691;52.486;13.374;2023-05-21T05:05:43;19.60;;;17.50;;
3355;SDS011;1691;52.486;13.374;2023-05-21T05:08:10;23.10;;;17.30;;
3355;SDS011;1691;52.486;13.374;2023-05-21T05:10:41;19.37;;;17.50;;
3355;SDS011;1691;52.486;13.374;2023-05-21T05:13:08;18.33;;;16.63;;
3355;SDS011;1691;52.486;13.374;2023-05-21T05:15:35;20.70;;;17.73;;
3355;SDS011;1691;52.486;13.374;2023-05-21T05:18:02;17.97;;;16.27;;
3355;SDS011;1691;52.486;13.374;2023-05-21T05:20:29;17.77;;;15.97;;
3355;SDS011;1691;52.486;13.374;2023-05-21T05:22:56;19.20;;;16.63;;
3355;SDS011;1691;52.486;13.374;2023-05-21T05:25:25;21.90;;;17.73;;
3355;SDS011;1691;52.486;13.374;2023-05-21T05:27:52;23.00;;;17.03;;
3355;SDS011;1691;52.486;13.374;2023-05-21T05:30:19;22.60;;;16.63;;
3355;SDS011;1691;52.486;13.374;2023-05-21T05:32:46;24.03;;;16.23;;
3355;SDS011;1691;52.486;13.374;2023-05-21T05:35:13;18.87;;;17.13;;
3355;SDS011;1691;52.486;13.374;2023-05-21T05:37:40;18.57;;;16.77;;
3355;SDS011;1691;52.486;13.374;2023-05-21T05:40:07;19.60;;;17.67;;
3355;SDS011;1691;52.486;13.374;2023-05-21T05:42:35;20.93;;;17.13;;
3355;SDS011;1691;52.486;13.374;2023-05-21T05:45:01;19.03;;;17.07;;
3355;SDS011;1691;52.486;13.374;2023-05-21T05:47:29;25.45;;;19.10;;
3355;SDS011;1691;52.486;13.374;2023-05-21T05:49:59;23.43;;;17.60;;
3355;SDS011;1691;52.486;13.374;2023-05-21T05:52:26;17.70;;;16.00;;
3355;SDS011;1691;52.486;13.374;2023-05-21T05:54:53;19.60;;;16.60;;
3355;SDS011;1691;52.486;13.374;2023-05-21T05:57:20;22.27;;;17.13;;
3355;SDS011;1691;52.486;13.374;2023-05-21T05:59:47;19.30;;;17.30;;
3355;SDS011;1691;52.486;13.374;2023-05-21T06:02:14;18.13;;;16.13;;
3355;SDS011;1691;52.486;13.374;2023-05-21T06:04:41;18.03;;;16.13;;
3355;SDS011;1691;52.486;13.374;2023-05-21T06:07:08;17.20;;;15.40;;
3355;SDS011;1691;52.486;13.374;2023-05-21T06:09:36;20.00;;;17.00;;
3355;SDS011;1691;52.486;13.374;2023-05-21T06:12:06;19.17;;;17.10;;
3355;SDS011;1691;52.486;13.374;2023-05-21T06:14:39;21.00;;;16.13;;
3355;SDS011;1691;52.486;13.374;2023-05-21T06:17:10;19.07;;;17.07;;
3355;SDS011;1691;52.486;13.374;2023-05-21T06:19:38;20.90;;;17.23;;
3355;SDS011;1691;52.486;13.374;2023-05-21T06:22:05;18.10;;;16.30;;
3355;SDS011;1691;52.486;13.374;2023-05-21T06:24:31;27.03;;;16.97;;
3355;SDS011;1691;52.486;13.374;2023-05-21T06:26:58;20.83;;;16.70;;
3355;SDS011;1691;52.486;13.374;2023-05-21T06:29:26;22.30;;;15.93;;
3355;SDS011;1691;52.486;13.374;2023-05-21T06:31:53;17.90;;;15.90;;
3355;SDS011;1691;52.486;13.374;2023-05-21T06:34:20;19.33;;;17.33;;
3355;SDS011;1691;52.486;13.374;2023-05-21T06:36:47;18.70;;;16.77;;
3355;SDS011;1691;52.486;13.374;2023-05-21T06:39:14;19.07;;;17.07;;
3355;SDS011;1691;52.486;13.374;2023-05-21T06:41:41;18.53;;;16.93;;
3355;SDS011;1691;52.486;13.374;2023-05-21T06:44:08;17.90;;;16.17;;
3355;SDS011;1691;52.486;13.374;2023-05-21T06:46:35;20.43;;;16.00;;
3355;SDS011;1691;52.486;13.374;2023-05-21T06:49:02;18.27;;;16.63;;
3355;SDS011;1691;52.486;13.374;2023-05-21T06:51:32;17.50;;;15.80;;
3355;SDS011;1691;52.486;13.374;2023-05-21T06:53:59;17.57;;;15.87;;
3355;SDS011;1691;52.486;13.374;2023-05-21T06:56:26;21.70;;;16.57;;
3355;SDS011;1691;52.486;13.374;2023-05-21T06:58:53;17.73;;;15.93;;
3355;SDS011;1691;52.486;13.374;2023-05-21T07:01:20;39.13;;;15.40;;
3355;SDS011;1691;52.486;13.374;2023-05-21T07:03:48;16.17;;;14.77;;
3355;SDS011;1691;52.486;13.374;2023-05-21T07:06:15;16.13;;;14.67;;
3355;SDS011;1691;52.486;13.374;2023-05-21T07:08:42;18.17;;;13.67;;
3355;SDS011;1691;52.486;13.374;2023-05-21T07:11:09;14.40;;;13.10;;
3355;SDS011;1691;52.486;13.374;2023-05-21T07:16:03;17.20;;;15.40;;
3355;SDS011;1691;52.486;13.374;2023-05-21T07:18:30;14.23;;;12.10;;
3355;SDS011;1691;52.486;13.374;2023-05-21T07:20:57;12.33;;;11.33;;
3355;SDS011;1691;52.486;13.374;2023-05-21T07:23:24;12.37;;;11.27;;
3355;SDS011;1691;52.486;13.374;2023-05-21T07:25:51;12.13;;;10.97;;
3355;SDS011;1691;52.486;13.374;2023-05-21T07:28:18;10.17;;;9.30;;
3355;SDS011;1691;52.486;13.374;2023-05-21T07:30:45;15.23;;;10.30;;
3355;SDS011;1691;52.486;13.374;2023-05-21T07:33:12;11.33;;;10.33;;
3355;SDS011;1691;52.486;13.374;2023-05-21T07:35:39;11.20;;;10.20;;
3355;SDS011;1691;52.486;13.374;2023-05-21T07:38:06;18.07;;;9.00;;
3355;SDS011;1691;52.486;13.374;2023-05-21T07:40:33;12.67;;;9.40;;
3355;SDS011;1691;52.486;13.374;2023-05-21T07:43:00;13.33;;;8.90;;
3355;SDS011;1691;52.486;13.374;2023-05-21T07:45:27;9.77;;;9.17;;
3355;SDS011;1691;52.486;13.374;2023-05-21T07:47:54;8.77;;;8.00;;
3355;SDS011;1691;52.486;13.374;2023-05-21T07:50:21;9.10;;;8.50;;
3355;SDS011;1691;52.486;13.374;2023-05-21T07:52:49;9.17;;;8.57;;
3355;SDS011;1691;52.486;13.374;2023-05-21T07:55:16;8.93;;;8.13;;
3355;SDS011;1691;52.486;13.374;2023-05-21T07:57:43;10.83;;;8.07;;
3355;SDS011;1691;52.486;13.374;2023-05-21T08:00:11;13.43;;;8.90;;
3355;SDS011;1691;52.486;13.374;2023-05-21T08:02:39;12.73;;;8.30;;
3355;SDS011;1691;52.486;13.374;2023-05-21T08:05:06;10.77;;;7.90;;
3355;SDS011;1691;52.486;13.374;2023-05-21T08:07:35;10.80;;;7.90;;
3355;SDS011;1691;52.486;13.374;2023-05-21T08:10:03;8.37;;;7.70;;
3355;SDS011;1691;52.486;13.374;2023-05-21T08:12:32;9.07;;;8.57;;
3355;SDS011;1691;52.486;13.374;2023-05-21T08:14:59;8.00;;;7.30;;
3355;SDS011;1691;52.486;13.374;2023-05-21T08:17:26;9.13;;;8.43;;
3355;SDS011;1691;52.486;13.374;2023-05-21T08:19:56;8.97;;;8.30;;
3355;SDS011;1691;52.486;13.374;2023-05-21T08:22:23;10.40;;;7.80;;
3355;SDS011;1691;52.486;13.374;2023-05-21T08:24:50;7.83;;;7.43;;
3355;SDS011;1691;52.486;13.374;2023-05-21T08:27:17;8.13;;;7.50;;
3355;SDS011;1691;52.486;13.374;2023-05-21T08:29:44;9.50;;;7.93;;
3355;SDS011;1691;52.486;13.374;2023-05-21T08:32:11;7.77;;;7.30;;
3355;SDS011;1691;52.486;13.374;2023-05-21T08:34:38;12.27;;;8.27;;
3355;SDS011;1691;52.486;13.374;2023-05-21T08:37:05;16.20;;;7.13;;
3355;SDS011;1691;52.486;13.374;2023-05-21T08:39:32;8.83;;;7.70;;
3355;SDS011;1691;52.486;13.374;2023-05-21T08:42:03;8.90;;;7.13;;
3355;SDS011;1691;52.486;13.374;2023-05-21T08:45:00;9.33;;;7.13;;
3355;SDS011;1691;52.486;13.374;2023-05-21T08:47:33;7.17;;;6.47;;
3355;SDS011;1691;52.486;13.374;2023-05-21T08:50:02;10.10;;;7.27;;
3355;SDS011;1691;52.486;13.374;2023-05-21T08:52:35;7.80;;;7.30;;
3355;SDS011;1691;52.486;13.374;2023-05-21T08:55:02;13.00;;;7.10;;
3355;SDS011;1691;52.486;13.374;2023-05-21T08:57:31;7.57;;;6.80;;
3355;SDS011;1691;52.486;13.374;2023-05-21T08:59:58;7.57;;;7.00;;
3355;SDS011;1691;52.486;13.374;2023-05-21T09:02:28;8.47;;;8.00;;
3355;SDS011;1691;52.486;13.374;2023-05-21T09:04:59;7.20;;;6.90;;
3355;SDS011;1691;52.486;13.374;2023-05-21T09:07:28;8.70;;;7.27;;
3355;SDS011;1691;52.486;13.374;2023-05-21T09:10:03;7.93;;;6.70;;
3355;SDS011;1691;52.486;13.374;2023-05-21T09:12:36;10.07;;;7.43;;
3355;SDS011;1691;52.486;13.374;2023-05-21T09:15:03;7.27;;;6.63;;
3355;SDS011;1691;52.486;13.374;2023-05-21T09:17:31;8.27;;;7.80;;
3355;SDS011;1691;52.486;13.374;2023-05-21T09:20:04;14.93;;;6.63;;
3355;SDS011;1691;52.486;13.374;2023-05-21T09:25:16;10.30;;;7.80;;
3355;SDS011;1691;52.486;13.374;2023-05-21T09:27:50;10.40;;;7.30;;
3355;SDS011;1691;52.486;13.374;2023-05-21T09:30:17;7.83;;;7.33;;
3355;SDS011;1691;52.486;13.374;2023-05-21T09:32:54;7.33;;;6.80;;
3355;SDS011;1691;52.486;13.374;2023-05-21T09:35:23;7.90;;;7.27;;
3355;SDS011;1691;52.486;13.374;2023-05-21T09:37:51;7.73;;;7.13;;
3355;SDS011;1691;52.486;13.374;2023-05-21T09:40:20;7.90;;;7.13;;
3355;SDS011;1691;52.486;13.374;2023-05-21T09:42:49;12.53;;;6.53;;
3355;SDS011;1691;52.486;13.374;2023-05-21T09:45:19;14.50;;;7.10;;
3355;SDS011;1691;52.486;13.374;2023-05-21T09:47:49;8.73;;;6.30;;
3355;SDS011;1691;52.486;13.374;2023-05-21T09:50:19;9.50;;;5.97;;
3355;SDS011;1691;52.486;13.374;2023-05-21T09:52:50;5.77;;;5.37;;
3355;SDS011;1691;52.486;13.374;2023-05-21T09:55:24;6.17;;;5.60;;
3355;SDS011;1691;52.486;13.374;2023-05-21T09:57:52;8.93;;;6.23;;
3355;SDS011;1691;52.486;13.374;2023-05-21T10:00:22;6.37;;;5.80;;
3355;SDS011;1691;52.486;13.374;2023-05-21T10:02:53;12.30;;;5.70;;
3355;SDS011;1691;52.486;13.374;2023-05-21T10:05:27;6.00;;;5.60;;
3355;SDS011;1691;52.486;13.374;2023-05-21T10:07:58;5.50;;;5.27;;
3355;SDS011;1691;52.486;13.374;2023-05-21T10:10:28;7.00;;;5.63;;
3355;SDS011;1691;52.486;13.374;2023-05-21T10:15:37;5.77;;;5.40;;
3355;SDS011;1691;52.486;13.374;2023-05-21T10:18:08;5.30;;;5.10;;
3355;SDS011;1691;52.486;13.374;2023-05-21T10:20:37;5.10;;;4.77;;
3355;SDS011;1691;52.486;13.374;2023-05-21T10:23:05;6.87;;;4.60;;
3355;SDS011;1691;52.486;13.374;2023-05-21T10:25:32;10.87;;;4.67;;
3355;SDS011;1691;52.486;13.374;2023-05-21T10:28:01;8.23;;;4.60;;
3355;SDS011;1691;52.486;13.374;2023-05-21T10:30:28;7.80;;;5.50;;
3355;SDS011;1691;52.486;13.374;2023-05-21T10:32:56;4.63;;;4.43;;
3355;SDS011;1691;52.486;13.374;2023-05-21T10:35:25;5.97;;;5.47;;
3355;SDS011;1691;52.486;13.374;2023-05-21T10:37:53;9.10;;;6.00;;
3355;SDS011;1691;52.486;13.374;2023-05-21T10:40:22;8.40;;;5.63;;
3355;SDS011;1691;52.486;13.374;2023-05-21T10:46:40;6.83;;;5.90;;
3355;SDS011;1691;52.486;13.374;2023-05-21T10:55:11;6.67;;;6.10;;
3355;SDS011;1691;52.486;13.374;2023-05-21T10:58:09;7.00;;;5.90;;
3355;SDS011;1691;52.486;13.374;2023-05-21T11:00:55;5.60;;;5.20;;
3355;SDS011;1691;52.486;13.374;2023-05-21T11:03:24;7.10;;;6.00;;
3355;SDS011;1691;52.486;13.374;2023-05-21T11:05:55;6.40;;;5.27;;
3355;SDS011;1691;52.486;13.374;2023-05-21T11:08:23;5.60;;;5.17;;
3355;SDS011;1691;52.486;13.374;2023-05-21T11:11:02;9.97;;;5.80;;
3355;SDS011;1691;52.486;13.374;2023-05-21T11:13:45;7.47;;;5.40;;
3355;SDS011;1691;52.486;13.374;2023-05-21T11:16:16;10.03;;;5.50;;
3355;SDS011;1691;52.486;13.374;2023-05-21T11:21:12;7.20;;;5.10;;
3355;SDS011;1691;52.486;13.374;2023-05-21T11:23:55;12.20;;;5.80;;
3355;SDS011;1691;52.486;13.374;2023-05-21T11:26:31;5.80;;;5.40;;
3355;SDS011;1691;52.486;13.374;2023-05-21T11:29:15;5.17;;;4.67;;
3355;SDS011;1691;52.486;13.374;2023-05-21T11:31:58;5.63;;;5.17;;
3355;SDS011;1691;52.486;13.374;2023-05-21T11:34:35;7.47;;;4.87;;
3355;SDS011;1691;52.486;13.374;2023-05-21T11:39:44;5.80;;;5.50;;
3355;SDS011;1691;52.486;13.374;2023-05-21T11:42:12;5.63;;;5.23;;
3355;SDS011;1691;52.486;13.374;2023-05-21T11:45:04;6.23;;;5.83;;
3355;SDS011;1691;52.486;13.374;2023-05-21T11:47:32;6.47;;;5.57;;
3355;SDS011;1691;52.486;13.374;2023-05-21T11:49:59;5.00;;;4.70;;
3355;SDS011;1691;52.486;13.374;2023-05-21T11:52:29;5.93;;;5.40;;
3355;SDS011;1691;52.486;13.374;2023-05-21T11:54:56;9.07;;;5.93;;
3355;SDS011;1691;52.486;13.374;2023-05-21T11:57:28;5.93;;;4.40;;
3355;SDS011;1691;52.486;13.374;2023-05-21T12:00:00;8.77;;;5.40;;
3355;SDS011;1691;52.486;13.374;2023-05-21T12:02:34;6.30;;;5.03;;
3355;SDS011;1691;52.486;13.374;2023-05-21T12:05:01;11.43;;;4.80;;
3355;SDS011;1691;52.486;13.374;2023-05-21T12:07:28;6.47;;;4.87;;
3355;SDS011;1691;52.486;13.374;2023-05-21T12:09:56;25.07;;;5.47;;
3355;SDS011;1691;52.486;13.374;2023-05-21T12:12:24;6.13;;;5.63;;
3355;SDS011;1691;52.486;13.374;2023-05-21T12:15:07;8.27;;;5.63;;
3355;SDS011;1691;52.486;13.374;2023-05-21T12:17:35;12.93;;;5.50;;
3355;SDS011;1691;52.486;13.374;2023-05-21T12:20:02;14.20;;;5.47;;
3355;SDS011;1691;52.486;13.374;2023-05-21T12:22:33;16.73;;;5.40;;
3355;SDS011;1691;52.486;13.374;2023-05-21T12:25:00;5.37;;;5.03;;
3355;SDS011;1691;52.486;13.374;2023-05-21T12:27:29;9.93;;;5.67;;
3355;SDS011;1691;52.486;13.374;2023-05-21T12:29:58;7.53;;;6.80;;
3355;SDS011;1691;52.486;13.374;2023-05-21T12:32:26;19.07;;;6.53;;
3355;SDS011;1691;52.486;13.374;2023-05-21T12:34:54;14.87;;;5.33;;
3355;SDS011;1691;52.486;13.374;2023-05-21T12:37:25;5.87;;;5.50;;
3355;SDS011;1691;52.486;13.374;2023-05-21T12:40:02;7.50;;;6.10;;
3355;SDS011;1691;52.486;13.374;2023-05-21T12:42:31;13.13;;;5.23;;
3355;SDS011;1691;52.486;13.374;2023-05-21T12:45:05;5.87;;;5.47;;
3355;SDS011;1691;52.486;13.374;2023-05-21T12:47:33;8.60;;;6.20;;
3355;SDS011;1691;52.486;13.374;2023-05-21T12:50:02;8.90;;;5.03;;
3355;SDS011;1691;52.486;13.374;2023-05-21T12:52:34;5.20;;;4.80;;
3355;SDS011;1691;52.486;13.374;2023-05-21T12:55:01;5.73;;;5.43;;
3355;SDS011;1691;52.486;13.374;2023-05-21T12:57:35;6.03;;;5.43;;
3355;SDS011;1691;52.486;13.374;2023-05-21T13:00:05;12.33;;;5.77;;
3355;SDS011;1691;52.486;13.374;2023-05-21T13:02:34;11.50;;;5.17;;
3355;SDS011;1691;52.486;13.374;2023-05-21T13:05:09;6.60;;;5.57;;
3355;SDS011;1691;52.486;13.374;2023-05-21T13:07:45;5.73;;;5.20;;
3355;SDS011;1691;52.486;13.374;2023-05-21T13:10:13;7.50;;;6.00;;
3355;SDS011;1691;52.486;13.374;2023-05-21T13:12:42;5.20;;;4.80;;
3355;SDS011;1691;52.486;13.374;2023-05-21T13:15:10;8.43;;;4.97;;
3355;SDS011;1691;52.486;13.374;2023-05-21T13:17:37;15.50;;;5.50;;
3355;SDS011;1691;52.486;13.374;2023-05-21T13:20:08;7.17;;;6.07;;
3355;SDS011;1691;52.486;13.374;2023-05-21T13:22:44;6.07;;;5.50;;
3355;SDS011;1691;52.486;13.374;2023-05-21T13:25:13;11.37;;;5.10;;
3355;SDS011;1691;52.486;13.374;2023-05-21T13:27:47;8.00;;;5.20;;
3355;SDS011;1691;52.486;13.374;2023-05-21T13:30:15;18.23;;;6.80;;
3355;SDS011;1691;52.486;13.374;2023-05-21T13:32:42;5.30;;;5.07;;
3355;SDS011;1691;52.486;13.374;2023-05-21T13:35:10;5.33;;;5.10;;
3355;SDS011;1691;52.486;13.374;2023-05-21T13:37:38;5.83;;;5.37;;
3355;SDS011;1691;52.486;13.374;2023-05-21T13:40:06;11.13;;;5.50;;
3355;SDS011;1691;52.486;13.374;2023-05-21T13:42:42;15.73;;;5.70;;
3355;SDS011;1691;52.486;13.374;2023-05-21T13:45:12;7.07;;;5.27;;
3355;SDS011;1691;52.486;13.374;2023-05-21T13:47:42;6.40;;;5.80;;
3355;SDS011;1691;52.486;13.374;2023-05-21T13:50:10;8.03;;;5.93;;
3355;SDS011;1691;52.486;13.374;2023-05-21T13:52:37;12.83;;;5.93;;
3355;SDS011;1691;52.486;13.374;2023-05-21T13:55:05;6.00;;;5.53;;
3355;SDS011;1691;52.486;13.374;2023-05-21T13:57:32;6.93;;;4.87;;
3355;SDS011;1691;52.486;13.374;2023-05-21T13:59:59;10.07;;;5.30;;
3355;SDS011;1691;52.486;13.374;2023-05-21T14:02:26;5.70;;;5.30;;
3355;SDS011;1691;52.486;13.374;2023-05-21T14:04:54;5.53;;;4.90;;
3355;SDS011;1691;52.486;13.374;2023-05-21T14:07:21;8.10;;;5.47;;
3355;SDS011;1691;52.486;13.374;2023-05-21T14:09:48;7.57;;;5.20;;
3355;SDS011;1691;52.486;13.374;2023-05-21T14:12:15;8.00;;;5.80;;
3355;SDS011;1691;52.486;13.374;2023-05-21T14:14:42;7.03;;;4.80;;
3355;SDS011;1691;52.486;13.374;2023-05-21T14:17:09;4.90;;;4.70;;
3355;SDS011;1691;52.486;13.374;2023-05-21T14:19:36;22.97;;;5.30;;
3355;SDS011;1691;52.486;13.374;2023-05-21T14:22:03;7.63;;;5.00;;
3355;SDS011;1691;52.486;13.374;2023-05-21T14:24:30;20.10;;;5.83;;
3355;SDS011;1691;52.486;13.374;2023-05-21T14:26:57;7.00;;;5.53;;
3355;SDS011;1691;52.486;13.374;2023-05-21T14:29:24;10.07;;;4.93;;
3355;SDS011;1691;52.486;13.374;2023-05-21T14:31:51;10.70;;;5.50;;
3355;SDS011;1691;52.486;13.374;2023-05-21T14:34:18;13.83;;;5.30;;
3355;SDS011;1691;52.486;13.374;2023-05-21T14:36:45;5.87;;;5.43;;
3355;SDS011;1691;52.486;13.374;2023-05-21T14:39:12;15.13;;;5.50;;
3355;SDS011;1691;52.486;13.374;2023-05-21T14:41:39;7.93;;;5.43;;
3355;SDS011;1691;52.486;13.374;2023-05-21T14:44:06;6.43;;;5.33;;
3355;SDS011;1691;52.486;13.374;2023-05-21T14:46:33;8.30;;;4.50;;
3355;SDS011;1691;52.486;13.374;2023-05-21T14:49:00;5.00;;;4.53;;
3355;SDS011;1691;52.486;13.374;2023-05-21T14:51:28;6.03;;;5.10;;
3355;SDS011;1691;52.486;13.374;2023-05-21T14:53:56;4.70;;;4.37;;
3355;SDS011;1691;52.486;13.374;2023-05-21T14:56:23;11.13;;;5.43;;
3355;SDS011;1691;52.486;13.374;2023-05-21T14:58:52;5.37;;;4.80;;
3355;SDS011;1691;52.486;13.374;2023-05-21T15:01:20;4.60;;;4.20;;
3355;SDS011;1691;52.486;13.374;2023-05-21T15:03:47;4.80;;;4.60;;
3355;SDS011;1691;52.486;13.374;2023-05-21T15:06:14;14.30;;;5.40;;
3355;SDS011;1691;52.486;13.374;2023-05-21T15:08:42;6.97;;;5.17;;
3355;SDS011;1691;52.486;13.374;2023-05-21T15:11:09;7.60;;;4.10;;
3355;SDS011;1691;52.486;13.374;2023-05-21T15:13:36;10.93;;;5.03;;
3355;SDS011;1691;52.486;13.374;2023-05-21T15:16:04;5.43;;;4.70;;
3355;SDS011;1691;52.486;13.374;2023-05-21T15:18:31;14.90;;;5.27;;
3355;SDS011;1691;52.486;13.374;2023-05-21T15:20:58;6.43;;;4.50;;
3355;SDS011;1691;52.486;13.374;2023-05-21T15:23:25;15.07;;;4.60;;
3355;SDS011;1691;52.486;13.374;2023-05-21T15:25:52;5.10;;;4.80;;
3355;SDS011;1691;52.486;13.374;2023-05-21T15:28:19;6.63;;;4.80;;
3355;SDS011;1691;52.486;13.374;2023-05-21T15:30:48;7.70;;;4.40;;
3355;SDS011;1691;52.486;13.374;2023-05-21T15:33:15;17.23;;;5.10;;
3355;SDS011;1691;52.486;13.374;2023-05-21T15:35:42;5.53;;;4.10;;